createdAt,value
2019-03-16T00:02:22.628Z,2.50
2019-03-16T00:04:49.880Z,2.50
2019-03-16T00:07:17.132Z,2.50
2019-03-16T00:09:44.451Z,2.50
2019-03-16T00:12:11.708Z,2.50
2019-03-16T00:14:38.959Z,2.60
2019-03-16T00:17:06.412Z,2.50
2019-03-16T00:19:33.765Z,2.60
2019-03-16T00:22:01.103Z,2.60
2019-03-16T00:24:28.446Z,2.60
2019-03-16T00:26:55.668Z,2.60
2019-03-16T00:29:23.184Z,2.60
2019-03-16T00:31:50.384Z,2.60
2019-03-16T00:34:17.488Z,2.60
2019-03-16T00:36:44.742Z,2.60
2019-03-16T00:39:12.105Z,2.60
2019-03-16T00:41:39.449Z,2.60
2019-03-16T00:44:06.775Z,2.60
2019-03-16T00:46:34.123Z,2.60
2019-03-16T00:49:01.440Z,2.60
2019-03-16T00:51:28.784Z,2.60
2019-03-16T00:53:56.180Z,2.50
2019-03-16T00:56:23.494Z,2.50
2019-03-16T00:58:50.656Z,2.50
2019-03-16T01:01:17.962Z,2.40
2019-03-16T01:03:45.215Z,2.50
2019-03-16T01:06:12.568Z,2.50
2019-03-16T01:08:39.820Z,2.50
2019-03-16T01:11:07.177Z,2.50
2019-03-16T01:13:34.504Z,2.50
2019-03-16T01:16:01.860Z,2.50
2019-03-16T01:18:29.196Z,2.40
2019-03-16T01:20:56.565Z,2.40
2019-03-16T01:23:23.829Z,2.40
2019-03-16T01:25:51.115Z,2.40
2019-03-16T01:28:18.467Z,2.40
2019-03-16T01:30:47.856Z,2.40
2019-03-16T01:33:15.214Z,2.40
2019-03-16T01:35:42.523Z,2.40
2019-03-16T01:38:09.906Z,2.30
2019-03-16T01:40:37.232Z,2.30
2019-03-16T01:43:04.544Z,2.30
2019-03-16T01:45:31.913Z,2.30
2019-03-16T01:47:59.162Z,2.30
2019-03-16T01:50:26.540Z,2.40
2019-03-16T01:52:53.870Z,2.30
2019-03-16T01:55:21.119Z,2.30
2019-03-16T01:57:48.348Z,2.30
2019-03-16T02:00:15.722Z,2.30
2019-03-16T02:02:54.390Z,2.30
2019-03-16T02:05:12.384Z,2.30
2019-03-16T02:07:39.697Z,2.30
2019-03-16T02:10:07.252Z,2.30
2019-03-16T02:12:34.471Z,2.30
2019-03-16T02:15:01.822Z,2.30
2019-03-16T02:17:29.501Z,2.30
2019-03-16T02:19:56.854Z,2.40
2019-03-16T02:22:24.104Z,2.40
2019-03-16T02:24:51.449Z,2.40
2019-03-16T02:27:18.858Z,2.40
2019-03-16T02:29:46.115Z,2.40
2019-03-16T02:32:13.331Z,2.40
2019-03-16T02:34:40.685Z,2.40
2019-03-16T02:37:07.982Z,2.30
2019-03-16T02:39:35.378Z,2.30
2019-03-16T02:42:02.714Z,2.30
2019-03-16T02:44:30.061Z,2.40
2019-03-16T02:46:57.290Z,2.40
2019-03-16T02:49:24.576Z,2.40
2019-03-16T02:51:52.116Z,2.40
2019-03-16T02:54:19.336Z,2.50
2019-03-16T02:56:46.694Z,2.50
2019-03-16T02:59:13.914Z,2.50
2019-03-16T03:01:41.564Z,2.50
2019-03-16T03:04:08.871Z,2.50
2019-03-16T03:06:37.104Z,2.60
2019-03-16T03:09:07.103Z,2.60
2019-03-16T03:11:34.351Z,2.60
2019-03-16T03:14:01.609Z,2.60
2019-03-16T03:16:31.079Z,2.60
2019-03-16T03:18:58.414Z,2.60
2019-03-16T03:21:25.925Z,2.60
2019-03-16T03:23:53.262Z,2.60
2019-03-16T03:26:20.696Z,2.70
2019-03-16T03:28:48.554Z,2.70
2019-03-16T03:31:15.922Z,2.70
2019-03-16T03:33:58.598Z,2.70
2019-03-16T03:36:12.453Z,2.70
2019-03-16T03:38:39.924Z,2.70
2019-03-16T03:41:07.202Z,2.70
2019-03-16T03:43:34.551Z,2.80
2019-03-16T03:46:01.925Z,2.80
2019-03-16T03:48:29.258Z,2.90
2019-03-16T03:50:56.586Z,2.90
2019-03-16T03:53:23.914Z,2.90
2019-03-16T03:55:51.255Z,3.00
2019-03-16T03:58:18.488Z,3.00
2019-03-16T04:00:45.722Z,3.00
2019-03-16T04:03:13.168Z,3.00
2019-03-16T04:05:40.490Z,3.00
2019-03-16T04:08:07.817Z,3.00
2019-03-16T04:10:35.198Z,3.00
2019-03-16T04:13:02.533Z,3.00
2019-03-16T04:15:29.868Z,3.00
2019-03-16T04:17:57.202Z,3.00
2019-03-16T04:20:24.564Z,2.90
2019-03-16T04:22:51.999Z,2.90
2019-03-16T04:25:19.253Z,2.90
2019-03-16T04:27:46.555Z,2.90
2019-03-16T04:30:13.843Z,2.90
2019-03-16T04:32:41.050Z,2.90
2019-03-16T04:35:08.301Z,2.90
2019-03-16T04:37:35.654Z,3.00
2019-03-16T04:40:03.271Z,3.00
2019-03-16T04:42:31.708Z,2.90
2019-03-16T04:44:58.927Z,3.00
2019-03-16T04:47:26.180Z,3.00
2019-03-16T04:49:53.395Z,2.90
2019-03-16T04:52:20.745Z,2.90
2019-03-16T04:54:48.051Z,3.00
2019-03-16T04:57:15.309Z,3.00
2019-03-16T04:59:42.624Z,2.90
2019-03-16T05:02:09.949Z,3.00
2019-03-16T05:04:42.329Z,2.90
2019-03-16T05:07:06.296Z,3.00
2019-03-16T05:09:33.649Z,2.90
2019-03-16T05:12:01.007Z,3.00
2019-03-16T05:14:28.266Z,2.90
2019-03-16T05:16:55.616Z,2.90
2019-03-16T05:19:22.939Z,2.90
2019-03-16T05:21:50.199Z,2.90
2019-03-16T05:24:17.419Z,3.00
2019-03-16T05:26:44.867Z,2.90
2019-03-16T05:29:12.192Z,3.00
2019-03-16T05:31:39.571Z,3.00
2019-03-16T05:34:06.698Z,3.00
2019-03-16T05:36:34.033Z,3.00
2019-03-16T05:39:01.380Z,3.00
2019-03-16T05:41:28.627Z,3.00
2019-03-16T05:43:55.985Z,3.00
2019-03-16T05:46:23.369Z,3.00
2019-03-16T05:48:50.888Z,3.00
2019-03-16T05:51:18.181Z,2.90
2019-03-16T05:53:45.423Z,2.90
2019-03-16T05:56:12.740Z,2.90
2019-03-16T05:58:40.100Z,2.90
2019-03-16T06:01:07.459Z,2.90
2019-03-16T06:03:34.737Z,2.90
2019-03-16T06:06:01.984Z,2.90
2019-03-16T06:08:29.499Z,2.90
2019-03-16T06:10:56.849Z,2.90
2019-03-16T06:13:24.051Z,2.90
2019-03-16T06:15:51.195Z,3.00
2019-03-16T06:18:18.537Z,3.10
2019-03-16T06:20:45.795Z,3.10
2019-03-16T06:23:13.019Z,3.20
2019-03-16T06:25:40.228Z,3.20
2019-03-16T06:28:07.584Z,3.30
2019-03-16T06:30:35.130Z,3.30
2019-03-16T06:33:02.491Z,3.40
2019-03-16T06:35:29.810Z,3.40
2019-03-16T06:37:57.245Z,3.40
2019-03-16T06:40:24.572Z,3.40
2019-03-16T06:42:52.001Z,3.40
2019-03-16T06:45:19.222Z,3.30
2019-03-16T06:47:47.460Z,3.30
2019-03-16T06:50:14.733Z,3.40
2019-03-16T06:52:42.050Z,3.50
2019-03-16T06:55:09.784Z,3.70
2019-03-16T06:57:36.996Z,3.70
2019-03-16T07:00:04.932Z,3.80
2019-03-16T07:02:32.268Z,3.80
2019-03-16T07:04:59.581Z,3.80
2019-03-16T07:07:26.945Z,3.80
2019-03-16T07:09:54.255Z,3.80
2019-03-16T07:12:21.553Z,3.80
2019-03-16T07:14:48.827Z,3.90
2019-03-16T07:17:16.473Z,4.00
2019-03-16T07:19:44.099Z,4.00
2019-03-16T07:22:11.554Z,4.10
2019-03-16T07:24:38.964Z,4.20
2019-03-16T07:27:06.296Z,4.30
2019-03-16T07:29:33.620Z,4.30
2019-03-16T07:32:01.039Z,4.30
2019-03-16T07:34:28.459Z,4.40
2019-03-16T07:36:55.861Z,4.30
2019-03-16T07:39:23.312Z,4.30
2019-03-16T07:41:50.742Z,4.40
2019-03-16T07:44:17.994Z,4.50
2019-03-16T07:46:45.334Z,4.60
2019-03-16T07:49:12.776Z,4.70
2019-03-16T07:51:40.004Z,4.90
2019-03-16T07:54:07.457Z,4.80
2019-03-16T07:56:34.680Z,4.80
2019-03-16T07:59:01.907Z,4.70
2019-03-16T08:01:29.185Z,4.80
2019-03-16T08:03:56.606Z,4.70
2019-03-16T08:06:23.919Z,4.60
2019-03-16T08:08:51.412Z,4.60
2019-03-16T08:11:22.707Z,4.70
2019-03-16T08:13:49.950Z,4.80
2019-03-16T08:16:17.276Z,4.90
2019-03-16T08:18:44.583Z,4.90
2019-03-16T08:21:11.950Z,4.80
2019-03-16T08:23:39.184Z,4.60
2019-03-16T08:26:06.656Z,4.40
2019-03-16T08:28:33.862Z,4.40
2019-03-16T08:31:01.361Z,4.30
2019-03-16T08:33:28.701Z,4.20
2019-03-16T08:35:56.056Z,4.20
2019-03-16T08:38:23.359Z,4.20
2019-03-16T08:40:50.574Z,4.20
2019-03-16T08:43:18.008Z,4.30
2019-03-16T08:45:45.226Z,4.30
2019-03-16T08:48:22.905Z,4.30
2019-03-16T08:50:43.583Z,4.50
2019-03-16T08:53:10.807Z,4.60
2019-03-16T08:55:38.020Z,4.60
2019-03-16T08:58:06.310Z,4.60
2019-03-16T09:00:33.784Z,4.70
2019-03-16T09:03:01.049Z,4.70
2019-03-16T09:05:28.394Z,4.80
2019-03-16T09:07:55.423Z,4.80
2019-03-16T09:10:22.692Z,4.80
2019-03-16T09:12:54.789Z,4.90
2019-03-16T09:15:19.147Z,5.00
2019-03-16T09:17:46.419Z,4.90
2019-03-16T09:20:13.727Z,4.90
2019-03-16T09:22:41.035Z,4.80
2019-03-16T09:25:08.392Z,4.80
2019-03-16T09:27:35.668Z,4.90
2019-03-16T09:30:04.097Z,5.00
2019-03-16T09:32:31.454Z,5.00
2019-03-16T09:34:58.840Z,4.90
2019-03-16T09:37:26.140Z,4.80
2019-03-16T09:39:53.505Z,4.90
2019-03-16T09:42:20.835Z,5.00
2019-03-16T09:44:48.053Z,5.10
2019-03-16T09:47:15.407Z,5.10
2019-03-16T09:49:42.768Z,5.10
2019-03-16T09:52:10.067Z,5.10
2019-03-16T09:54:37.406Z,5.00
2019-03-16T09:57:05.199Z,5.10
2019-03-16T09:59:32.535Z,5.10
2019-03-16T10:01:59.970Z,5.10
2019-03-16T10:04:27.332Z,5.20
2019-03-16T10:06:54.591Z,5.10
2019-03-16T10:09:21.920Z,5.30
2019-03-16T10:11:49.330Z,5.20
2019-03-16T10:14:16.848Z,5.30
2019-03-16T10:16:44.207Z,5.40
2019-03-16T10:19:11.888Z,5.60
2019-03-16T10:21:39.212Z,5.80
2019-03-16T10:24:06.562Z,6.10
2019-03-16T10:26:37.382Z,6.40
2019-03-16T10:29:03.682Z,6.60
2019-03-16T10:31:31.012Z,6.50
2019-03-16T10:33:58.335Z,6.40
2019-03-16T10:36:25.674Z,6.40
2019-03-16T10:38:53.079Z,6.20
2019-03-16T10:41:20.326Z,6.30
2019-03-16T10:43:47.691Z,6.30
2019-03-16T10:46:14.991Z,6.30
2019-03-16T10:48:42.334Z,6.30
2019-03-16T10:51:09.664Z,6.40
2019-03-16T10:53:36.907Z,6.40
2019-03-16T10:56:04.447Z,6.30
2019-03-16T10:58:31.801Z,6.40
2019-03-16T11:00:59.068Z,6.30
2019-03-16T11:03:26.444Z,6.30
2019-03-16T11:05:53.663Z,6.40
2019-03-16T11:08:21.019Z,6.30
2019-03-16T11:10:48.424Z,6.10
2019-03-16T11:13:15.784Z,6.20
2019-03-16T11:15:43.339Z,6.20
2019-03-16T11:18:10.669Z,6.10
2019-03-16T11:20:37.929Z,6.10
2019-03-16T11:23:05.240Z,6.10
2019-03-16T11:25:32.763Z,5.90
2019-03-16T11:28:00.534Z,5.90
2019-03-16T11:30:28.244Z,6.00
2019-03-16T11:32:55.443Z,6.00
2019-03-16T11:35:22.917Z,6.10
2019-03-16T11:37:50.279Z,6.20
2019-03-16T11:40:17.587Z,6.20
2019-03-16T11:42:45.548Z,6.30
2019-03-16T11:45:13.098Z,6.50
2019-03-16T11:47:40.484Z,6.60
2019-03-16T11:50:07.875Z,6.80
2019-03-16T11:52:35.328Z,6.80
2019-03-16T11:55:02.834Z,6.90
2019-03-16T11:57:30.206Z,6.90
2019-03-16T11:59:57.433Z,6.70
2019-03-16T12:02:24.852Z,6.70
2019-03-16T12:04:52.347Z,6.30
2019-03-16T12:07:19.597Z,6.20
2019-03-16T12:09:46.948Z,6.20
2019-03-16T12:12:14.171Z,6.10
2019-03-16T12:14:41.523Z,6.10
2019-03-16T12:17:08.752Z,6.00
2019-03-16T12:19:36.211Z,6.10
2019-03-16T12:22:03.622Z,6.00
2019-03-16T12:24:30.965Z,5.90
2019-03-16T12:26:58.314Z,5.90
2019-03-16T12:29:34.022Z,5.90
2019-03-16T12:31:54.859Z,5.90
2019-03-16T12:34:22.183Z,5.90
2019-03-16T12:36:49.434Z,6.00
2019-03-16T12:39:16.800Z,6.00
2019-03-16T12:41:44.134Z,6.10
2019-03-16T12:44:11.502Z,6.20
2019-03-16T12:46:38.825Z,6.20
2019-03-16T12:49:06.153Z,6.20
2019-03-16T12:51:33.597Z,6.30
2019-03-16T12:54:00.963Z,6.20
2019-03-16T12:56:28.203Z,6.20
2019-03-16T12:58:55.583Z,6.20
2019-03-16T13:01:23.459Z,6.30
2019-03-16T13:03:50.788Z,6.10
2019-03-16T13:06:19.219Z,6.10
2019-03-16T13:08:46.663Z,6.30
2019-03-16T13:11:14.009Z,6.40
2019-03-16T13:13:41.252Z,6.40
2019-03-16T13:16:08.668Z,6.60
2019-03-16T13:18:35.969Z,6.70
2019-03-16T13:21:03.585Z,6.70
2019-03-16T13:23:30.941Z,6.70
2019-03-16T13:25:58.542Z,6.70
2019-03-16T13:28:25.765Z,6.50
2019-03-16T13:30:53.230Z,6.40
2019-03-16T13:33:20.874Z,6.30
2019-03-16T13:35:48.230Z,6.30
2019-03-16T13:38:15.557Z,6.30
2019-03-16T13:40:43.029Z,6.30
2019-03-16T13:43:10.402Z,6.30
2019-03-16T13:45:37.722Z,6.30
2019-03-16T13:48:05.068Z,6.30
2019-03-16T13:50:32.285Z,6.40
2019-03-16T13:53:00.121Z,6.70
2019-03-16T13:55:27.440Z,6.80
2019-03-16T13:57:54.787Z,6.80
2019-03-16T14:00:22.293Z,6.80
2019-03-16T14:02:49.933Z,6.60
2019-03-16T14:05:17.407Z,6.60
2019-03-16T14:07:45.152Z,6.70
2019-03-16T14:10:14.198Z,6.70
2019-03-16T14:12:41.568Z,6.70
2019-03-16T14:15:09.120Z,6.50
2019-03-16T14:17:36.733Z,6.50
2019-03-16T14:20:05.328Z,6.50
2019-03-16T14:22:32.537Z,6.50
2019-03-16T14:24:59.901Z,6.40
2019-03-16T14:27:27.235Z,6.30
2019-03-16T14:29:54.688Z,6.20
2019-03-16T14:32:22.148Z,6.20
2019-03-16T14:34:49.795Z,6.10
2019-03-16T14:37:17.306Z,6.20
2019-03-16T14:39:44.634Z,6.20
2019-03-16T14:42:12.167Z,6.20
2019-03-16T14:44:39.583Z,6.20
2019-03-16T14:47:07.160Z,6.20
2019-03-16T14:49:34.442Z,6.20
2019-03-16T14:52:02.101Z,6.20
2019-03-16T14:54:29.404Z,6.10
2019-03-16T14:56:56.665Z,6.10
2019-03-16T14:59:23.979Z,6.10
2019-03-16T15:01:51.234Z,6.00
2019-03-16T15:04:18.588Z,6.10
2019-03-16T15:06:45.883Z,6.00
2019-03-16T15:09:13.228Z,6.10
2019-03-16T15:11:40.452Z,6.10
2019-03-16T15:14:20.752Z,6.10
2019-03-16T15:16:36.947Z,6.20
2019-03-16T15:19:04.157Z,6.20
2019-03-16T15:21:31.632Z,6.20
2019-03-16T15:23:58.793Z,6.20
2019-03-16T15:26:26.266Z,6.10
2019-03-16T15:28:55.092Z,6.10
2019-03-16T15:31:22.876Z,6.00
2019-03-16T15:33:50.246Z,6.10
2019-03-16T15:36:17.564Z,6.10
2019-03-16T15:38:44.999Z,6.10
2019-03-16T15:41:12.229Z,6.10
2019-03-16T15:43:39.467Z,6.10
2019-03-16T15:46:06.787Z,6.00
2019-03-16T15:48:34.027Z,6.00
2019-03-16T15:51:01.278Z,6.10
2019-03-16T15:53:28.684Z,5.90
2019-03-16T15:55:56.136Z,5.70
2019-03-16T15:58:23.549Z,5.70
2019-03-16T16:01:02.699Z,5.70
2019-03-16T16:03:20.028Z,5.70
2019-03-16T16:05:47.358Z,5.70
2019-03-16T16:08:14.763Z,5.70
2019-03-16T16:10:42.029Z,5.70
2019-03-16T16:13:10.230Z,5.70
2019-03-16T16:15:37.655Z,5.60
2019-03-16T16:18:04.945Z,5.60
2019-03-16T16:20:32.164Z,5.50
2019-03-16T16:22:59.415Z,5.40
2019-03-16T16:25:26.621Z,5.40
2019-03-16T16:27:54.185Z,5.20
2019-03-16T16:30:21.659Z,5.20
2019-03-16T16:32:49.064Z,5.20
2019-03-16T16:35:16.408Z,5.20
2019-03-16T16:37:43.727Z,5.20
2019-03-16T16:40:11.218Z,5.10
2019-03-16T16:42:38.626Z,5.10
2019-03-16T16:45:07.012Z,5.10
2019-03-16T16:47:34.432Z,5.10
2019-03-16T16:50:01.844Z,5.00
2019-03-16T16:52:29.192Z,4.90
2019-03-16T16:54:56.532Z,4.90
2019-03-16T16:57:23.803Z,4.70
2019-03-16T16:59:51.024Z,4.70
2019-03-16T17:02:18.259Z,4.80
2019-03-16T17:04:45.517Z,4.70
2019-03-16T17:07:12.760Z,4.60
2019-03-16T17:09:40.064Z,4.40
2019-03-16T17:12:07.407Z,4.40
2019-03-16T17:14:34.720Z,4.20
2019-03-16T17:17:02.068Z,4.20
2019-03-16T17:19:29.374Z,4.20
2019-03-16T17:21:56.693Z,4.20
2019-03-16T17:24:24.027Z,4.20
2019-03-16T17:26:51.339Z,4.10
2019-03-16T17:29:18.699Z,4.10
2019-03-16T17:31:46.153Z,4.00
2019-03-16T17:34:13.618Z,3.90
2019-03-16T17:36:41.012Z,4.00
2019-03-16T17:39:08.232Z,4.00
2019-03-16T17:41:35.449Z,4.00
2019-03-16T17:44:02.801Z,3.80
2019-03-16T17:46:30.216Z,3.70
2019-03-16T17:48:57.374Z,3.60
2019-03-16T17:51:24.684Z,3.50
2019-03-16T17:53:52.080Z,3.40
2019-03-16T17:56:19.396Z,3.30
2019-03-16T17:58:46.620Z,3.30
2019-03-16T18:01:14.375Z,3.30
2019-03-16T18:03:41.651Z,3.30
2019-03-16T18:06:09.026Z,3.20
2019-03-16T18:08:36.280Z,3.30
2019-03-16T18:11:03.737Z,3.20
2019-03-16T18:13:31.062Z,3.20
2019-03-16T18:15:58.291Z,3.30
2019-03-16T18:18:25.746Z,3.40
2019-03-16T18:20:53.097Z,3.40
2019-03-16T18:23:20.302Z,3.30
2019-03-16T18:25:47.548Z,3.30
2019-03-16T18:28:14.904Z,3.30
2019-03-16T18:30:42.252Z,3.40
2019-03-16T18:33:09.467Z,3.40
2019-03-16T18:35:36.688Z,3.30
2019-03-16T18:38:03.927Z,3.30
2019-03-16T18:40:31.429Z,3.30
2019-03-16T18:42:58.740Z,3.40
2019-03-16T18:45:26.284Z,3.50
2019-03-16T18:47:53.594Z,3.50
2019-03-16T18:50:20.944Z,3.60
2019-03-16T18:52:48.195Z,3.70
2019-03-16T18:55:15.545Z,3.60
2019-03-16T18:57:42.914Z,3.50
2019-03-16T19:00:11.142Z,3.40
2019-03-16T19:02:38.358Z,3.40
2019-03-16T19:05:06.448Z,3.40
2019-03-16T19:07:33.764Z,3.60
2019-03-16T19:10:01.145Z,3.70
2019-03-16T19:12:28.535Z,3.80
2019-03-16T19:14:56.012Z,3.80
2019-03-16T19:17:23.327Z,3.90
2019-03-16T19:19:50.635Z,4.00
2019-03-16T19:22:18.071Z,4.10
2019-03-16T19:24:45.469Z,4.10
2019-03-16T19:27:14.644Z,4.00
2019-03-16T19:29:42.086Z,3.90
2019-03-16T19:32:09.575Z,4.00
2019-03-16T19:34:37.034Z,3.90
2019-03-16T19:37:04.493Z,3.60
2019-03-16T19:39:32.011Z,3.60
2019-03-16T19:41:59.456Z,3.50
2019-03-16T19:44:26.924Z,3.50
2019-03-16T19:46:54.408Z,3.40
2019-03-16T19:49:22.028Z,3.50
2019-03-16T19:51:49.396Z,3.50
2019-03-16T19:54:16.770Z,3.50
2019-03-16T19:56:44.263Z,3.60
2019-03-16T19:59:11.753Z,3.50
2019-03-16T20:01:39.177Z,3.50
2019-03-16T20:04:06.570Z,3.50
2019-03-16T20:06:33.965Z,3.40
2019-03-16T20:09:01.307Z,3.50
2019-03-16T20:11:30.608Z,3.40
2019-03-16T20:13:59.956Z,3.30
2019-03-16T20:16:27.511Z,3.20
2019-03-16T20:18:55.087Z,3.10
2019-03-16T20:21:24.455Z,3.20
2019-03-16T20:23:55.609Z,3.20
2019-03-16T20:26:23.061Z,3.20
2019-03-16T20:28:50.530Z,3.30
2019-03-16T20:31:18.055Z,3.40
2019-03-16T20:33:45.417Z,3.30
2019-03-16T20:36:12.878Z,3.30
2019-03-16T20:38:40.281Z,3.30
2019-03-16T20:41:07.774Z,3.20
2019-03-16T20:43:35.248Z,3.10
2019-03-16T20:46:02.685Z,3.10
2019-03-16T20:48:30.154Z,3.00
2019-03-16T20:50:57.660Z,2.90
2019-03-16T20:53:24.975Z,2.90
2019-03-16T20:55:52.456Z,3.00
2019-03-16T20:58:19.916Z,2.80
2019-03-16T21:00:47.297Z,2.70
2019-03-16T21:03:16.370Z,2.60
2019-03-16T21:05:46.121Z,2.60
2019-03-16T21:08:13.352Z,2.50
2019-03-16T21:10:40.635Z,2.50
2019-03-16T21:13:08.096Z,2.40
2019-03-16T21:15:35.500Z,2.40
2019-03-16T21:18:03.267Z,2.40
2019-03-16T21:20:30.644Z,2.40
2019-03-16T21:22:58.110Z,2.30
2019-03-16T21:25:25.429Z,2.30
2019-03-16T21:27:52.901Z,2.30
2019-03-16T21:30:20.560Z,2.30
2019-03-16T21:32:47.926Z,2.30
2019-03-16T21:35:15.290Z,2.20
2019-03-16T21:37:42.927Z,2.20
2019-03-16T21:40:10.513Z,2.30
2019-03-16T21:42:37.973Z,2.20
2019-03-16T21:45:06.131Z,2.20
2019-03-16T21:47:33.495Z,2.20
2019-03-16T21:50:00.824Z,2.20
2019-03-16T21:52:28.181Z,2.20
2019-03-16T21:54:55.819Z,2.20
2019-03-16T21:57:23.222Z,2.10
2019-03-16T21:59:50.633Z,2.10
2019-03-16T22:02:18.036Z,2.00
2019-03-16T22:04:45.408Z,2.00
2019-03-16T22:07:12.884Z,2.00
2019-03-16T22:09:40.180Z,1.90
2019-03-16T22:12:07.734Z,1.90
2019-03-16T22:14:35.199Z,1.90
2019-03-16T22:17:02.591Z,1.80
2019-03-16T22:19:29.898Z,1.80
2019-03-16T22:21:57.264Z,1.80
2019-03-16T22:24:24.523Z,1.80
2019-03-16T22:26:51.929Z,1.70
2019-03-16T22:29:19.417Z,1.60
2019-03-16T22:31:46.797Z,1.60
2019-03-16T22:34:14.160Z,1.50
2019-03-16T22:36:41.608Z,1.50
2019-03-16T22:39:08.940Z,1.50
2019-03-16T22:41:36.199Z,1.40
2019-03-16T22:44:04.015Z,1.30
2019-03-16T22:46:31.466Z,1.30
2019-03-16T22:48:58.727Z,1.30
2019-03-16T22:51:26.070Z,1.20
2019-03-16T22:53:53.338Z,1.20
2019-03-16T22:56:20.907Z,1.10
2019-03-16T22:58:48.240Z,1.10
2019-03-16T23:01:15.865Z,1.10
2019-03-16T23:03:43.275Z,1.10
2019-03-16T23:06:10.748Z,1.10
2019-03-16T23:08:38.127Z,1.10
2019-03-16T23:11:05.791Z,1.10
2019-03-16T23:13:33.207Z,0.90
2019-03-16T23:16:00.758Z,0.90
2019-03-16T23:18:28.347Z,0.80
2019-03-16T23:20:55.847Z,0.80
2019-03-16T23:23:23.359Z,0.80
2019-03-16T23:25:50.619Z,0.80
2019-03-16T23:28:17.939Z,0.70
2019-03-16T23:30:45.292Z,0.70
2019-03-16T23:33:12.760Z,0.70
2019-03-16T23:35:40.455Z,0.80
2019-03-16T23:38:07.920Z,0.70
2019-03-16T23:40:35.356Z,0.80
2019-03-16T23:43:02.868Z,0.80
2019-03-16T23:45:30.192Z,0.80
2019-03-16T23:47:57.562Z,0.90
2019-03-16T23:50:24.880Z,0.90
2019-03-16T23:52:52.378Z,1.00
2019-03-16T23:55:19.812Z,0.90
2019-03-16T23:57:47.053Z,1.00
